• Join FlightAware (Why Join?)
  • Login
  • US Flag 
01:57PM EDT


 

Airport Tracker/Info


-or-


 

Live Flight TrackerFlight Track Log ✈ N9791F ✈ 20-Jun-2013 ✈ KHUA - KDCU

Flight Track Log - Related Links

Times and Time Zones

All times are in EDT time to prevent confusion due to time zone crossing. See the N9791F flight status page for this flight to view local times or setup timezone preferences in your user account.

Time Position Orientation Groundspeed Altitude Reporting Facility
EDT Latitude Longitude Course Direction KTS MPH feet Rate Location/Type
02:32PM 34.6839 -86.6875 353° North 89 102 900  Level Memphis Center
02:33PM 34.7111 -86.6914 353° North 100 115 1,600 480 Climbing Memphis Center
02:34PM 34.7222 -86.7136 301° West 96 110 2,100 420 Climbing Memphis Center
02:35PM 34.7231 -86.7464 272° West 104 120 2,500 120 Climbing Memphis Center
02:36PM 34.7222 -86.7819 268° West 109 125 2,400  Descending Memphis Center
02:37PM 34.7233 -86.8222 272° West 109 125 2,500  Climbing Memphis Center
02:38PM 34.7222 -86.8578 268° West 107 123 2,500 -60 Level Memphis Center
02:39PM 34.7456 -86.8692 338° Northwest 113 130 2,400  Descending Memphis Center
02:40PM 34.7744 -86.8606 14° North 112 129 2,500  Climbing Memphis Center
02:41PM 34.8011 -86.8492 19° North 107 123 2,400  Descending Memphis Center
02:42PM 34.8281 -86.8431 11° North 99 114 2,500  Climbing Memphis Center
02:43PM 34.8433 -86.8628 313° West 116 133 2,400  Descending Memphis Center
02:44PM 34.8464 -86.8981 276° West 100 115 2,600  Climbing Memphis Center
02:45PM 34.8411 -86.9336 260° West 112 129 2,400 -300 Descending Memphis Center
02:46PM 34.8142 -86.9397 191° South 107 123 2,000 -120 Descending Memphis Center
02:47PM 34.7869 -86.9408 182° South 103 119 2,200 120 Climbing Memphis Center
02:48PM 34.7622 -86.9444 187° South 97 112 2,300 -120 Climbing Memphis Center
02:49PM 34.7372 -86.9456 182° South 93 107 2,000 -420 Descending Memphis Center
02:50PM 34.7100 -86.9442 178° South 91 105 1,500 -480 Descending Memphis Center
02:51PM 34.6892 -86.9475 187° South 84 97 1,100 -420 Descending Memphis Center
02:52PM 34.6661 -86.9458 177° South 82 94 700 -180 Descending Memphis Center
02:53PM 34.6433 -86.9467 182° South 91 105 800 420 Climbing Memphis Center
02:54PM 34.6206 -86.9528 192° South 83 96 1,600 720 Climbing Memphis Center
02:55PM 34.6211 -86.9803 271° West 95 109 2,200 600 Climbing Memphis Center